L'Europe — FKJB — position and weather

sailwx.info

Track history (hours):
 
Tides and Currents Weather Stations Pressure Air Temp Water Temp Dewpoint Dewpoint Depression Visibility Wind Speed Wind Dir Waves Ship Positions

Oceanographic research ship L'Europe (France)

Detailed information on ship capabilities available from University of Delaware's Ocean Information Center.

Last reported at 2019-Jun-19 05:20 UTC. Time now 2019-Jun-19 20:51 UTC.
Position N 43°24' E 003°44'.

Length 30 m; beam 11 m.

Type: . MMSI: 227403000.

Date/timePositionNaut miles runAvg speedWind from/ knotsBaromVisibWave heightAir tempDewpointWater temp
2019-Jun-19 05:20N 43°24' E 003°44'1 0.1
2019-Jun-18 15:44N 43°24' E 003°42'2 4.8
2019-Jun-18 15:23N 43°24' E 003°44'4 8.6
2019-Jun-18 14:57N 43°20' E 003°46'17 9.2
2019-Jun-18 13:05N 43°04' E 003°53'1 9.6
2019-Jun-18 13:00N 43°03' E 003°54'11 1.5
2019-Jun-18 05:38N 43°06' E 004°08'2 1.8
2019-Jun-18 04:29N 43°07' E 004°05'1 2.9
2019-Jun-18 04:00N 43°06' E 004°07'2 3.2
2019-Jun-18 03:30N 43°06' E 004°09'2 3.4
2019-Jun-18 03:00N 43°05' E 004°12'2 3.2
2019-Jun-18 02:17N 43°05' E 004°15'1 3.1
2019-Jun-18 02:00N 43°05' E 004°16'2 2.6
2019-Jun-18 01:21N 43°04' E 004°18'1 2.7
2019-Jun-18 01:00N 43°04' E 004°19'2 2.6
2019-Jun-18 00:24N 43°04' E 004°22'2 2.9
2019-Jun-17 23:49N 43°04' E 004°24'1 3.1
2019-Jun-17 23:29N 43°04' E 004°25'23 0.8
2019-Jun-16 19:55N 43°25' E 004°12'1 3.5
2019-Jun-16 19:29N 43°25' E 004°10'2 3.5
2019-Jun-16 19:00N 43°25' E 004°07'1 1.6
2019-Jun-16 18:24N 43°25' E 004°06'1 3.6
2019-Jun-16 18:01N 43°25' E 004°08'2 3.5
2019-Jun-16 17:26N 43°25' E 004°11'1 2.8
2019-Jun-16 16:56N 43°24' E 004°11'3 4.3
2019-Jun-16 16:20N 43°21' E 004°10'8 4.0
2019-Jun-16 14:16N 43°13' E 004°07'20 2.3
2019-Jun-16 05:19N 43°24' E 003°43'10 0.3
2019-Jun-14 13:37N 43°19' E 003°55'1 7.4
2019-Jun-14 13:30N 43°18' E 003°56'40 1.5
2019-Jun-13 09:55N 42°40' E 004°11'2 1.9
2019-Jun-13 09:06N 42°40' E 004°09'  
2019-Jun-11 01:54N 42°48' E 003°10'2 5.2
2019-Jun-11 01:30N 42°50' E 003°11'3 5.2
2019-Jun-11 00:59N 42°52' E 003°12'3 5.2
2019-Jun-11 00:29N 42°55' E 003°13'42 5.0
2019-Jun-10 16:15N 43°23' E 003°55'1 5.3
2019-Jun-10 16:00N 43°23' E 003°57'3 5.5
2019-Jun-10 15:31N 43°23' E 004°00'3 5.5
2019-Jun-10 15:00N 43°23' E 004°04'3 5.4
2019-Jun-10 14:29N 43°23' E 004°08'4 4.5
2019-Jun-10 13:34N 43°25' E 004°13'0 2.2
2019-Jun-10 13:27N 43°25' E 004°13'4 1.0
2019-Jun-10 09:25N 43°24' E 004°08'2 4.6
2019-Jun-10 08:55N 43°25' E 004°05'1 3.0
2019-Jun-10 08:30N 43°25' E 004°04'1 2.6
2019-Jun-10 08:01N 43°26' E 004°03'2 4.2
2019-Jun-10 07:31N 43°27' E 003°60'2 4.4
2019-Jun-10 07:00N 43°27' E 003°57'1 3.0
2019-Jun-10 06:31N 43°28' E 003°56'3 5.9
2019-Jun-10 06:01N 43°26' E 003°52'5 9.1
2019-Jun-10 05:30N 43°24' E 003°47'3 0.1
2019-Jun-08 16:28N 43°24' E 003°42'0 0.0
2019-Jun-08 15:54N 43°24' E 003°42'2 4.3
2019-Jun-08 15:30N 43°23' E 003°44'3 5.3
2019-Jun-08 15:00N 43°21' E 003°45'4 6.9
2019-Jun-08 14:24N 43°17' E 003°47'4 6.8
2019-Jun-08 13:47N 43°13' E 003°49'27 4.7
2019-Jun-08 07:56N 42°60' E 003°16'6 4.3
2019-Jun-08 06:39N 42°56' E 003°10'1 3.4
2019-Jun-08 06:28N 42°56' E 003°11'4 7.7
2019-Jun-08 06:00N 42°56' E 003°06'  
Track history (hours):
 
Tides and Currents Weather Stations Pressure Air Temp Water Temp Dewpoint Dewpoint Depression Visibility Wind Speed Wind Dir Waves Ship Positions

Oceanographic research ship L'Europe (France)

Detailed information on ship capabilities available from University of Delaware's Ocean Information Center.

Last reported at 2019-Jun-19 05:20 UTC. Time now 2019-Jun-19 20:51 UTC.
Position N 43°24' E 003°44'.

Length 30 m; beam 11 m.

Type: . MMSI: 227403000.

Date/timePositionNaut miles runAvg speedWind from/ knotsBaromVisibWave heightAir tempDewpointWater temp
2019-Jun-19 05:20N 43°24' E 003°44'1 0.1
2019-Jun-18 15:44N 43°24' E 003°42'2 4.8
2019-Jun-18 15:23N 43°24' E 003°44'4 8.6
2019-Jun-18 14:57N 43°20' E 003°46'17 9.2
2019-Jun-18 13:05N 43°04' E 003°53'1 9.6
2019-Jun-18 13:00N 43°03' E 003°54'11 1.5
2019-Jun-18 05:38N 43°06' E 004°08'2 1.8
2019-Jun-18 04:29N 43°07' E 004°05'1 2.9
2019-Jun-18 04:00N 43°06' E 004°07'2 3.2
2019-Jun-18 03:30N 43°06' E 004°09'2 3.4
2019-Jun-18 03:00N 43°05' E 004°12'2 3.2
2019-Jun-18 02:17N 43°05' E 004°15'1 3.1
2019-Jun-18 02:00N 43°05' E 004°16'2 2.6
2019-Jun-18 01:21N 43°04' E 004°18'1 2.7
2019-Jun-18 01:00N 43°04' E 004°19'2 2.6
2019-Jun-18 00:24N 43°04' E 004°22'2 2.9
2019-Jun-17 23:49N 43°04' E 004°24'1 3.1
2019-Jun-17 23:29N 43°04' E 004°25'23 0.8
2019-Jun-16 19:55N 43°25' E 004°12'1 3.5
2019-Jun-16 19:29N 43°25' E 004°10'2 3.5
2019-Jun-16 19:00N 43°25' E 004°07'1 1.6
2019-Jun-16 18:24N 43°25' E 004°06'1 3.6
2019-Jun-16 18:01N 43°25' E 004°08'2 3.5
2019-Jun-16 17:26N 43°25' E 004°11'1 2.8
2019-Jun-16 16:56N 43°24' E 004°11'3 4.3
2019-Jun-16 16:20N 43°21' E 004°10'8 4.0
2019-Jun-16 14:16N 43°13' E 004°07'20 2.3
2019-Jun-16 05:19N 43°24' E 003°43'10 0.3
2019-Jun-14 13:37N 43°19' E 003°55'1 7.4
2019-Jun-14 13:30N 43°18' E 003°56'40 1.5
2019-Jun-13 09:55N 42°40' E 004°11'2 1.9
2019-Jun-13 09:06N 42°40' E 004°09'  
2019-Jun-11 01:54N 42°48' E 003°10'2 5.2
2019-Jun-11 01:30N 42°50' E 003°11'3 5.2
2019-Jun-11 00:59N 42°52' E 003°12'3 5.2
2019-Jun-11 00:29N 42°55' E 003°13'42 5.0
2019-Jun-10 16:15N 43°23' E 003°55'1 5.3
2019-Jun-10 16:00N 43°23' E 003°57'3 5.5
2019-Jun-10 15:31N 43°23' E 004°00'3 5.5
2019-Jun-10 15:00N 43°23' E 004°04'3 5.4
2019-Jun-10 14:29N 43°23' E 004°08'4 4.5
2019-Jun-10 13:34N 43°25' E 004°13'0 2.2
2019-Jun-10 13:27N 43°25' E 004°13'4 1.0
2019-Jun-10 09:25N 43°24' E 004°08'2 4.6
2019-Jun-10 08:55N 43°25' E 004°05'1 3.0
2019-Jun-10 08:30N 43°25' E 004°04'1 2.6
2019-Jun-10 08:01N 43°26' E 004°03'2 4.2
2019-Jun-10 07:31N 43°27' E 003°60'2 4.4
2019-Jun-10 07:00N 43°27' E 003°57'1 3.0
2019-Jun-10 06:31N 43°28' E 003°56'3 5.9
2019-Jun-10 06:01N 43°26' E 003°52'5 9.1
2019-Jun-10 05:30N 43°24' E 003°47'3 0.1
2019-Jun-08 16:28N 43°24' E 003°42'0 0.0
2019-Jun-08 15:54N 43°24' E 003°42'2 4.3
2019-Jun-08 15:30N 43°23' E 003°44'3 5.3
2019-Jun-08 15:00N 43°21' E 003°45'4 6.9
2019-Jun-08 14:24N 43°17' E 003°47'4 6.8
2019-Jun-08 13:47N 43°13' E 003°49'27 4.7
2019-Jun-08 07:56N 42°60' E 003°16'6 4.3
2019-Jun-08 06:39N 42°56' E 003°10'1 3.4
2019-Jun-08 06:28N 42°56' E 003°11'4 7.7
2019-Jun-08 06:00N 42°56' E 003°06'  

Dump ship's entire track history